Weather History for Glendive, MT

Change the Weather History Date:

Monday, November 26, 2012

  Actual Average Record
Temperature  
Mean Temperature 20 °F -  
Max Temperature 35 °F 35 °F 60 °F (1998)
Min Temperature 6 °F 17 °F -2 °F (1996)
Degree Days  
Heating Degree Days 44    
Moisture  
Dew Point 17 °F    
Average Humidity 82    
Maximum Humidity 93    
Minimum Humidity 65    
Precipitation  
Precipitation 0.00 in - - ()
Sea Level Pressure  
Sea Level Pressure 30.20 in    
Wind  
Wind Speed 8 mph (SW)    
Max Wind Speed 18 mph    
Max Gust Speed 22 mph    
Visibility 10 miles    
Events      
Averages and records for this station are not official NWS values.
T = Trace of Precipitation, MM = Missing Value Source: NWS Daily Summary

Daily Weather History Graph

Daily Weather History Graph

Search for Another Location

Airport:

Trip Planner

Search our weather history database for the weather conditions in past years. The results will help you decide how hot, cold, wet, or windy it might be!

Date:

Astronomy

Nov. 26, 2012 Rise Set
Actual Time 7:19 AM MST 4:14 PM MST
Civil Twilight 6:44 AM MST 4:48 PM MST
Nautical Twilight 6:06 AM MST 5:26 PM MST
Astronomical Twilight 5:30 AM MST 6:02 PM MST
Moon 3:11 PM MST (11/26) 5:27 AM MST (11/26)
Length of Visible Light 10h 03m
Length of Day
8h 54m
Waxing Gibbous, 97% of the Moon is Illuminated
Nov 26
Waxing Gibbous
Nov 28
Full
Dec 6
Last Quarter
Dec 13
New
Dec 19
First Quarter

Hourly Weather History & Observations

Time (MST) Temp. Windchill Dew Point Humidity Pressure Visibility Wind Dir Wind Speed Gust Speed Precip Events Conditions
12:35 AM 6.8 °F -0.1 °F 3.2 °F 85% 30.27 in 10.0 mi SW 3.5 mph - N/A   Clear
12:55 AM 8.6 °F 0.1 °F 5.0 °F 85% 30.27 in 10.0 mi SW 4.6 mph - N/A   Clear
1:15 AM 8.6 °F 0.1 °F 3.2 °F 79% 30.28 in 10.0 mi WSW 4.6 mph - N/A   Clear
1:35 AM 8.6 °F 0.1 °F 3.2 °F 79% 30.28 in 10.0 mi WSW 4.6 mph - N/A   Clear
1:55 AM 8.6 °F 0.1 °F 3.2 °F 79% 30.28 in 10.0 mi SW 4.6 mph - N/A   Clear
2:15 AM 8.6 °F -1.3 °F 3.2 °F 79% 30.29 in 10.0 mi SW 5.8 mph - N/A   Clear
2:35 AM 8.6 °F -1.3 °F 1.4 °F 73% 30.29 in 10.0 mi SSW 5.8 mph - N/A   Clear
2:55 AM 8.6 °F -2.6 °F 3.2 °F 79% 30.29 in 10.0 mi SW 6.9 mph - N/A   Clear
3:15 AM 8.6 °F -2.6 °F 5.0 °F 85% 30.28 in 10.0 mi SSW 6.9 mph - N/A   Clear
3:35 AM 8.6 °F -4.7 °F 3.2 °F 79% 30.28 in 10.0 mi SSW 9.2 mph - N/A   Clear
3:55 AM 10.4 °F -3.3 °F 6.8 °F 85% 30.29 in 10.0 mi SW 10.4 mph - N/A   Scattered Clouds
4:15 AM 10.4 °F -0.4 °F 8.6 °F 92% 30.28 in 10.0 mi SSW 6.9 mph - N/A   Scattered Clouds
4:35 AM 10.4 °F -1.5 °F 8.6 °F 92% 30.29 in 10.0 mi South 8.1 mph - N/A   Clear
4:55 AM 10.4 °F 0.8 °F 8.6 °F 92% 30.29 in 10.0 mi South 5.8 mph - N/A   Clear
5:35 AM 10.4 °F -0.4 °F 6.8 °F 85% 30.29 in 10.0 mi South 6.9 mph - N/A   Clear
6:15 AM 10.4 °F -0.4 °F 6.8 °F 85% 30.29 in 10.0 mi SSW 6.9 mph - N/A   Clear
6:35 AM 12.2 °F -1.0 °F 10.4 °F 92% 30.29 in 10.0 mi SSW 10.4 mph - N/A   Clear
6:55 AM 14.0 °F 1.2 °F 10.4 °F 86% 30.28 in 10.0 mi SSW 10.4 mph - N/A   Clear
7:15 AM 15.8 °F 4.2 °F 14.0 °F 93% 30.28 in 10.0 mi SSW 9.2 mph - N/A   Mostly Cloudy
7:35 AM 17.6 °F 4.3 °F 15.8 °F 93% 30.28 in 8.0 mi SSW 12.7 mph - N/A   Overcast
7:55 AM 19.4 °F 6.0 °F 17.6 °F 93% 30.28 in 10.0 mi SSW 13.8 mph - N/A   Overcast
8:15 AM 19.4 °F 6.6 °F 17.6 °F 93% 30.27 in 10.0 mi SW 12.7 mph - N/A   Overcast
8:35 AM 21.2 °F 8.3 °F 19.4 °F 93% 30.28 in 10.0 mi SSW 13.8 mph - N/A   Overcast
8:55 AM 21.2 °F 8.3 °F 19.4 °F 93% 30.28 in 7.0 mi SSW 13.8 mph - N/A   Overcast
9:35 AM 23.0 °F 11.1 °F 19.4 °F 86% 30.27 in 7.0 mi SSW 12.7 mph - N/A   Overcast
9:55 AM 24.8 °F 11.1 °F 21.2 °F 86% 30.27 in 7.0 mi SSW 18.4 mph 21.9 mph N/A   Overcast
10:15 AM 24.8 °F 13.4 °F 21.2 °F 86% 30.28 in 9.0 mi SSW 12.7 mph - N/A   Overcast
10:35 AM 24.8 °F 14.6 °F 21.2 °F 86% 30.27 in 7.0 mi SSW 10.4 mph - N/A   Overcast
10:55 AM 24.8 °F 12.9 °F 23.0 °F 93% 30.26 in 9.0 mi SSW 13.8 mph - N/A   Overcast
11:15 AM 26.6 °F 15.7 °F 23.0 °F 86% 30.26 in 10.0 mi SSW 12.7 mph 17.3 mph N/A   Overcast
11:35 AM 26.6 °F 15.7 °F 24.8 °F 93% 30.25 in 10.0 mi SSW 12.7 mph - N/A   Overcast
11:55 AM 28.4 °F 18.5 °F 24.8 °F 86% 30.24 in 10.0 mi SW 11.5 mph - N/A   Mostly Cloudy
12:15 PM 30.2 °F 20.2 °F 26.6 °F 86% 30.23 in 10.0 mi SW 12.7 mph - N/A   Partly Cloudy
12:35 PM 33.8 °F 26.4 °F 26.6 °F 75% 30.22 in 10.0 mi SSW 9.2 mph - N/A   Clear
12:55 PM 33.8 °F 25.3 °F 24.8 °F 70% 30.21 in 10.0 mi SSW 11.5 mph - N/A   Clear
1:15 PM 33.8 °F 25.8 °F 24.8 °F 70% 30.19 in 10.0 mi SW 10.4 mph - N/A   Clear
1:35 PM 35.6 °F 27.5 °F 24.8 °F 65% 30.19 in 10.0 mi SW 11.5 mph - N/A   Clear
1:55 PM 33.8 °F 24.8 °F 24.8 °F 70% 30.18 in 10.0 mi SW 12.7 mph - N/A   Clear
2:15 PM 33.8 °F 25.3 °F 24.8 °F 70% 30.17 in 10.0 mi SW 11.5 mph - N/A   Clear
2:35 PM 33.8 °F 25.3 °F 24.8 °F 70% 30.17 in 10.0 mi SSW 11.5 mph - N/A   Clear
2:55 PM 35.6 °F 27.5 °F 24.8 °F 65% 30.16 in 10.0 mi SSW 11.5 mph - N/A   Clear
3:15 PM 35.6 °F 28.0 °F 24.8 °F 65% 30.16 in 10.0 mi SW 10.4 mph - N/A   Clear
3:55 PM 32.0 °F 25.6 °F 24.8 °F 75% 30.16 in 10.0 mi WSW 6.9 mph - N/A   Clear
4:35 PM 28.4 °F 20.4 °F 21.2 °F 74% 30.14 in 10.0 mi WSW 8.1 mph - N/A   Clear
4:55 PM 28.4 °F 21.2 °F 21.2 °F 74% 30.14 in 10.0 mi WSW 6.9 mph - N/A   Clear
5:15 PM 28.4 °F 20.4 °F 21.2 °F 74% 30.13 in 10.0 mi SW 8.1 mph - N/A   Clear
5:35 PM 28.4 °F 22.2 °F 21.2 °F 74% 30.13 in 10.0 mi SW 5.8 mph - N/A   Scattered Clouds
5:55 PM 26.6 °F 19.1 °F 21.2 °F 80% 30.13 in 10.0 mi WSW 6.9 mph - N/A   Scattered Clouds
6:15 PM 26.6 °F 21.2 °F 19.4 °F 74% 30.13 in 10.0 mi WSW 4.6 mph - N/A   Clear
6:35 PM 26.6 °F 18.2 °F 19.4 °F 74% 30.12 in 10.0 mi WSW 8.1 mph - N/A   Clear
6:55 PM 24.8 °F 16.1 °F 21.2 °F 86% 30.12 in 10.0 mi WSW 8.1 mph - N/A   Partly Cloudy
7:15 PM 24.8 °F 16.1 °F 19.4 °F 80% 30.12 in 10.0 mi West 8.1 mph - N/A   Scattered Clouds
7:35 PM 24.8 °F 16.9 °F 21.2 °F 86% 30.12 in 10.0 mi West 6.9 mph - N/A   Scattered Clouds
7:55 PM 24.8 °F 16.9 °F 21.2 °F 86% 30.11 in 10.0 mi West 6.9 mph - N/A   Partly Cloudy
8:15 PM 24.8 °F 17.9 °F 19.4 °F 80% 30.11 in 10.0 mi WSW 5.8 mph - N/A   Clear
8:35 PM 23.0 °F 13.9 °F 17.6 °F 80% 30.11 in 10.0 mi West 8.1 mph - N/A   Clear
8:55 PM 24.8 °F 14.6 °F 19.4 °F 80% 30.11 in 10.0 mi WSW 10.4 mph - N/A   Clear
9:15 PM 23.0 °F 15.8 °F 17.6 °F 80% 30.10 in 10.0 mi WSW 5.8 mph - N/A   Clear
9:35 PM 23.0 °F 13.1 °F 19.4 °F 86% 30.10 in 10.0 mi SW 9.2 mph - N/A   Clear
9:55 PM 24.8 °F - 19.4 °F 80% 30.10 in 10.0 mi Calm Calm - N/A   Clear
10:15 PM 24.8 °F 17.9 °F 21.2 °F 86% 30.09 in 10.0 mi WSW 5.8 mph - N/A   Clear
10:35 PM 24.8 °F 16.9 °F 19.4 °F 80% 30.09 in 10.0 mi WSW 6.9 mph - N/A   Clear
10:55 PM 23.0 °F 15.8 °F 17.6 °F 80% 30.09 in 10.0 mi West 5.8 mph - N/A   Clear
11:15 PM 24.8 °F 16.9 °F 17.6 °F 74% 30.09 in 10.0 mi WSW 6.9 mph - N/A   Clear
11:35 PM 24.8 °F 16.9 °F 19.4 °F 80% 30.09 in 10.0 mi WSW 6.9 mph - N/A   Clear
11:55 PM 21.2 °F - 17.6 °F 86% 30.08 in 10.0 mi Calm Calm - N/A   Clear